createdAt,value
2018-09-13T00:00:01.393Z,4.00
2018-09-13T00:01:01.410Z,4.00
2018-09-13T00:02:01.441Z,4.00
2018-09-13T00:03:01.469Z,4.00
2018-09-13T00:04:01.658Z,4.00
2018-09-13T00:05:01.471Z,4.00
2018-09-13T00:06:01.578Z,4.00
2018-09-13T00:07:01.524Z,4.00
2018-09-13T00:08:01.524Z,4.00
2018-09-13T00:09:01.526Z,4.00
2018-09-13T00:10:01.546Z,4.00
2018-09-13T00:11:01.557Z,4.00
2018-09-13T00:12:01.572Z,4.00
2018-09-13T00:13:01.589Z,4.00
2018-09-13T00:14:01.603Z,4.00
2018-09-13T00:15:01.618Z,4.00
2018-09-13T00:16:01.629Z,4.00
2018-09-13T00:17:01.649Z,4.00
2018-09-13T00:18:01.662Z,4.00
2018-09-13T00:19:01.681Z,4.00
2018-09-13T00:20:01.696Z,4.00
2018-09-13T00:21:01.708Z,4.00
2018-09-13T00:22:01.722Z,4.00
2018-09-13T00:23:01.742Z,4.00
2018-09-13T00:24:01.753Z,4.00
2018-09-13T00:25:01.776Z,4.00
2018-09-13T00:26:02.088Z,4.00
2018-09-13T00:27:01.799Z,4.00
2018-09-13T00:28:01.819Z,4.00
2018-09-13T00:29:01.830Z,4.00
2018-09-13T00:30:01.859Z,4.00
2018-09-13T00:31:01.858Z,4.00
2018-09-13T00:32:01.875Z,4.00
2018-09-13T00:33:01.888Z,4.00
2018-09-13T00:34:01.907Z,4.00
2018-09-13T00:35:01.918Z,4.00
2018-09-13T00:36:01.934Z,4.00
2018-09-13T00:37:01.953Z,4.00
2018-09-13T00:38:01.962Z,4.00
2018-09-13T00:39:01.980Z,4.00
2018-09-13T00:40:01.996Z,4.00
2018-09-13T00:41:02.011Z,4.00
2018-09-13T00:42:02.025Z,4.00
2018-09-13T00:43:02.042Z,4.00
2018-09-13T00:44:02.054Z,4.00
2018-09-13T00:45:02.067Z,4.00
2018-09-13T00:46:02.128Z,4.00
2018-09-13T00:47:02.098Z,4.00
2018-09-13T00:48:02.117Z,4.00
2018-09-13T00:49:02.130Z,4.00
2018-09-13T00:50:02.147Z,4.00
2018-09-13T00:51:02.160Z,4.00
2018-09-13T00:52:02.177Z,4.00
2018-09-13T00:53:02.191Z,4.00
2018-09-13T00:54:02.205Z,4.00
2018-09-13T00:55:02.223Z,4.00
2018-09-13T00:56:02.268Z,4.00
2018-09-13T00:57:02.251Z,4.00
2018-09-13T00:58:02.267Z,4.00
2018-09-13T00:59:02.340Z,4.00
2018-09-13T01:00:02.294Z,4.00
2018-09-13T01:01:02.307Z,4.00
2018-09-13T01:02:02.321Z,4.00
2018-09-13T01:03:02.336Z,4.00
2018-09-13T01:04:02.353Z,4.00
2018-09-13T01:05:02.388Z,4.00
2018-09-13T01:06:02.382Z,4.00
2018-09-13T01:07:02.398Z,4.00
2018-09-13T01:08:02.420Z,4.00
2018-09-13T01:09:02.430Z,4.00
2018-09-13T01:10:02.447Z,4.00
2018-09-13T01:12:02.474Z,4.00
2018-09-13T01:13:02.501Z,4.00
2018-09-13T01:14:02.506Z,4.00
2018-09-13T01:15:02.519Z,4.00
2018-09-13T01:16:02.532Z,4.00
2018-09-13T01:17:02.550Z,4.00
2018-09-13T01:18:02.561Z,4.00
2018-09-13T01:19:02.584Z,4.00
2018-09-13T01:20:02.622Z,4.00
2018-09-13T01:21:02.611Z,4.00
2018-09-13T01:22:02.631Z,4.00
2018-09-13T01:23:02.636Z,4.00
2018-09-13T01:24:02.655Z,4.00
2018-09-13T01:25:02.663Z,4.00
2018-09-13T01:26:02.684Z,4.00
2018-09-13T01:27:02.703Z,4.00
2018-09-13T01:28:02.709Z,4.00
2018-09-13T01:29:02.725Z,4.00
2018-09-13T01:30:02.763Z,4.00
2018-09-13T01:31:02.753Z,4.00
2018-09-13T01:32:02.768Z,4.00
2018-09-13T01:33:02.789Z,4.00
2018-09-13T01:34:02.798Z,4.00
2018-09-13T01:35:02.815Z,4.00
2018-09-13T01:36:02.827Z,4.00
2018-09-13T01:37:02.841Z,4.00
2018-09-13T01:38:02.853Z,4.00
2018-09-13T01:39:02.867Z,4.00
2018-09-13T01:40:02.884Z,4.00
2018-09-13T01:41:02.909Z,4.00
2018-09-13T01:42:02.914Z,4.00
2018-09-13T01:43:02.940Z,4.00
2018-09-13T01:44:03.145Z,4.00
2018-09-13T01:45:02.967Z,4.00
2018-09-13T01:46:02.973Z,4.00
2018-09-13T01:47:02.983Z,4.00
2018-09-13T01:48:02.999Z,4.00
2018-09-13T01:49:03.012Z,4.00
2018-09-13T01:50:03.031Z,4.00
2018-09-13T01:51:03.042Z,4.00
2018-09-13T01:52:03.057Z,4.00
2018-09-13T01:53:03.072Z,4.00
2018-09-13T01:54:03.086Z,4.00
2018-09-13T01:55:03.104Z,4.00
2018-09-13T01:56:03.115Z,4.00
2018-09-13T01:57:03.132Z,4.00
2018-09-13T01:58:03.144Z,4.00
2018-09-13T01:59:03.159Z,4.00
2018-09-13T02:00:03.174Z,4.00
2018-09-13T02:01:03.187Z,4.00
2018-09-13T02:02:03.199Z,4.00
2018-09-13T02:03:03.225Z,4.00
2018-09-13T02:04:03.233Z,4.00
2018-09-13T02:05:03.278Z,4.00
2018-09-13T02:06:03.257Z,4.00
2018-09-13T02:07:03.269Z,4.00
2018-09-13T02:08:03.291Z,4.00
2018-09-13T02:09:03.299Z,4.00
2018-09-13T02:10:03.313Z,4.00
2018-09-13T02:11:03.330Z,4.00
2018-09-13T02:12:03.346Z,4.00
2018-09-13T02:13:03.359Z,4.00
2018-09-13T02:14:03.388Z,4.00
2018-09-13T02:15:03.385Z,4.00
2018-09-13T02:16:03.468Z,4.00
2018-09-13T02:17:03.526Z,4.00
2018-09-13T02:18:03.431Z,4.00
2018-09-13T02:19:03.444Z,4.00
2018-09-13T02:20:03.459Z,4.00
2018-09-13T02:21:03.472Z,4.00
2018-09-13T02:22:03.485Z,4.00
2018-09-13T02:23:03.500Z,4.00
2018-09-13T02:24:03.515Z,4.00
2018-09-13T02:25:03.557Z,4.00
2018-09-13T02:26:03.543Z,4.00
2018-09-13T02:27:03.558Z,4.00
2018-09-13T02:28:03.572Z,4.00
2018-09-13T02:29:03.589Z,4.00
2018-09-13T02:30:03.615Z,4.00
2018-09-13T02:31:03.613Z,4.00
2018-09-13T02:32:03.629Z,4.00
2018-09-13T02:33:03.643Z,4.00
2018-09-13T02:34:03.659Z,4.00
2018-09-13T02:35:03.673Z,4.00
2018-09-13T02:36:03.688Z,4.00
2018-09-13T02:37:03.707Z,4.00
2018-09-13T02:38:03.716Z,4.00
2018-09-13T02:39:03.730Z,4.00
2018-09-13T02:40:03.747Z,4.00
2018-09-13T02:41:03.757Z,4.00
2018-09-13T02:42:03.771Z,4.00
2018-09-13T02:43:03.790Z,4.00
2018-09-13T02:44:03.806Z,4.00
2018-09-13T02:45:03.814Z,4.00
2018-09-13T02:46:03.830Z,4.00
2018-09-13T02:47:03.893Z,4.00
2018-09-13T02:48:03.999Z,4.00
2018-09-13T02:49:03.918Z,4.00
2018-09-13T02:50:03.891Z,4.00
2018-09-13T02:51:03.904Z,4.00
2018-09-13T02:52:03.916Z,4.00
2018-09-13T02:53:03.930Z,4.00
2018-09-13T02:54:03.942Z,4.00
2018-09-13T02:55:03.954Z,4.00
2018-09-13T02:56:03.972Z,4.00
2018-09-13T02:57:03.982Z,4.00
2018-09-13T02:58:03.993Z,4.00
2018-09-13T02:59:04.010Z,4.00
2018-09-13T03:00:04.021Z,4.00
2018-09-13T03:01:04.035Z,4.00
2018-09-13T03:02:04.052Z,4.00
2018-09-13T03:03:04.064Z,4.00
2018-09-13T03:04:04.082Z,4.00
2018-09-13T03:05:04.093Z,4.00
2018-09-13T03:06:04.106Z,4.00
2018-09-13T03:07:04.127Z,4.00
2018-09-13T03:08:04.155Z,4.00
2018-09-13T03:09:04.150Z,4.00
2018-09-13T03:10:04.164Z,4.00
2018-09-13T03:11:04.182Z,4.00
2018-09-13T03:12:04.207Z,4.00
2018-09-13T03:13:04.211Z,4.00
2018-09-13T03:14:04.222Z,4.00
2018-09-13T03:15:04.242Z,4.00
2018-09-13T03:16:04.250Z,4.00
2018-09-13T03:17:04.320Z,4.00
2018-09-13T03:18:04.281Z,4.00
2018-09-13T03:19:04.292Z,4.00
2018-09-13T03:20:04.307Z,4.00
2018-09-13T03:21:04.320Z,4.00
2018-09-13T03:22:04.361Z,4.00
2018-09-13T03:23:04.356Z,4.00
2018-09-13T03:24:04.364Z,4.00
2018-09-13T03:25:04.385Z,4.00
2018-09-13T03:26:04.395Z,4.00
2018-09-13T03:27:04.411Z,4.00
2018-09-13T03:28:04.421Z,4.00
2018-09-13T03:29:04.441Z,4.00
2018-09-13T03:30:04.449Z,4.00
2018-09-13T03:31:04.467Z,4.00
2018-09-13T03:32:04.482Z,4.00
2018-09-13T03:33:04.498Z,4.00
2018-09-13T03:34:04.509Z,4.00
2018-09-13T03:35:04.520Z,4.00
2018-09-13T03:36:04.535Z,4.00
2018-09-13T03:37:04.549Z,4.00
2018-09-13T03:38:04.563Z,4.00
2018-09-13T03:39:04.577Z,4.00
2018-09-13T03:40:04.594Z,4.00
2018-09-13T03:41:04.612Z,4.00
2018-09-13T03:42:04.647Z,4.00
2018-09-13T03:43:04.647Z,4.00
2018-09-13T03:44:04.649Z,4.00
2018-09-13T03:45:04.670Z,4.00
2018-09-13T03:46:04.677Z,4.00
2018-09-13T03:47:04.691Z,4.00
2018-09-13T03:48:04.707Z,4.00
2018-09-13T03:49:04.721Z,4.00
2018-09-13T03:50:04.736Z,4.00
2018-09-13T03:51:04.751Z,4.00
2018-09-13T03:52:04.794Z,4.00
2018-09-13T03:53:04.788Z,4.00
2018-09-13T03:54:04.791Z,4.00
2018-09-13T03:55:04.820Z,4.00
2018-09-13T03:56:05.091Z,4.00
2018-09-13T03:57:04.834Z,4.00
2018-09-13T03:58:04.851Z,4.00
2018-09-13T03:59:04.862Z,4.00
2018-09-13T04:00:04.878Z,4.00
2018-09-13T04:01:04.891Z,4.00
2018-09-13T04:02:04.914Z,4.00
2018-09-13T04:03:04.927Z,4.00
2018-09-13T04:04:04.933Z,4.00
2018-09-13T04:05:04.950Z,4.00
2018-09-13T04:06:04.961Z,4.00
2018-09-13T04:07:04.976Z,4.00
2018-09-13T04:08:04.990Z,4.00
2018-09-13T04:09:05.027Z,4.00
2018-09-13T04:10:05.022Z,4.00
2018-09-13T04:11:05.057Z,4.00
2018-09-13T04:12:05.050Z,4.00
2018-09-13T04:13:05.063Z,4.00
2018-09-13T04:14:05.084Z,4.00
2018-09-13T04:15:05.091Z,4.00
2018-09-13T04:16:05.108Z,4.00
2018-09-13T04:17:05.324Z,4.00
2018-09-13T04:18:05.138Z,4.00
2018-09-13T04:19:05.164Z,4.00
2018-09-13T04:20:05.168Z,4.00
2018-09-13T04:21:05.176Z,4.00
2018-09-13T04:22:05.198Z,4.00
2018-09-13T04:23:05.209Z,4.00
2018-09-13T04:24:05.251Z,4.00
2018-09-13T04:25:05.256Z,4.00
2018-09-13T04:26:05.248Z,4.00
2018-09-13T04:27:05.272Z,4.00
2018-09-13T04:28:05.527Z,4.00
2018-09-13T04:29:05.292Z,4.00
2018-09-13T04:30:05.307Z,4.00
2018-09-13T04:31:05.333Z,4.00
2018-09-13T04:32:05.338Z,4.00
2018-09-13T04:33:05.353Z,4.00
2018-09-13T04:34:05.359Z,4.00
2018-09-13T04:35:05.377Z,4.00
2018-09-13T04:36:05.413Z,4.00
2018-09-13T04:37:05.441Z,0.00
2018-09-13T04:38:05.428Z,4.00
2018-09-13T04:39:05.433Z,4.00
2018-09-13T04:40:05.458Z,4.00
2018-09-13T04:41:05.473Z,4.00
2018-09-13T04:42:05.477Z,4.00
2018-09-13T04:43:05.606Z,8.00
2018-09-13T04:44:05.506Z,8.00
2018-09-13T04:45:05.527Z,4.00
2018-09-13T04:46:05.533Z,4.00
2018-09-13T04:47:05.761Z,8.00
2018-09-13T04:48:05.573Z,8.00
2018-09-13T04:49:05.596Z,4.00
2018-09-13T04:50:05.948Z,8.00
2018-09-13T04:51:05.602Z,8.00
2018-09-13T04:52:05.631Z,4.00
2018-09-13T04:53:05.639Z,8.00
2018-09-13T04:54:05.650Z,8.00
2018-09-13T04:55:05.660Z,8.00
2018-09-13T04:56:05.683Z,12.00
2018-09-13T04:57:05.730Z,8.00
2018-09-13T04:58:05.717Z,8.00
2018-09-13T04:59:05.717Z,12.00
2018-09-13T05:00:05.787Z,12.00
2018-09-13T05:01:05.747Z,12.00
2018-09-13T05:02:05.759Z,16.00
2018-09-13T05:03:05.875Z,16.00
2018-09-13T05:04:05.787Z,16.00
2018-09-13T05:05:05.802Z,16.00
2018-09-13T05:06:05.813Z,20.00
2018-09-13T05:07:05.828Z,20.00
2018-09-13T05:08:05.843Z,20.00
2018-09-13T05:09:05.858Z,24.00
2018-09-13T05:10:05.870Z,24.00
2018-09-13T05:11:05.888Z,28.00
2018-09-13T05:12:05.917Z,28.00
2018-09-13T05:13:05.922Z,28.00
2018-09-13T05:14:06.018Z,28.00
2018-09-13T05:15:05.941Z,28.00
2018-09-13T05:16:05.974Z,28.00
2018-09-13T05:17:05.971Z,28.00
2018-09-13T05:18:05.986Z,28.00
2018-09-13T05:19:06.062Z,28.00
2018-09-13T05:20:06.019Z,28.00
2018-09-13T05:21:06.075Z,28.00
2018-09-13T05:22:06.048Z,28.00
2018-09-13T05:23:06.103Z,32.00
2018-09-13T05:24:06.237Z,32.00
2018-09-13T05:25:06.437Z,32.00
2018-09-13T05:26:06.097Z,32.00
2018-09-13T05:27:06.110Z,36.00
2018-09-13T05:28:06.152Z,32.00
2018-09-13T05:29:06.146Z,32.00
2018-09-13T05:30:06.156Z,36.00
2018-09-13T05:31:06.173Z,32.00
2018-09-13T05:32:06.201Z,32.00
2018-09-13T05:33:06.197Z,36.00
2018-09-13T05:34:06.215Z,36.00
2018-09-13T05:35:06.227Z,40.00
2018-09-13T05:36:06.238Z,40.00
2018-09-13T05:37:06.255Z,44.00
2018-09-13T05:38:06.267Z,44.00
2018-09-13T05:39:06.286Z,44.00
2018-09-13T05:40:06.297Z,48.00
2018-09-13T05:41:06.309Z,52.00
2018-09-13T05:42:06.324Z,52.00
2018-09-13T05:43:06.403Z,56.00
2018-09-13T05:44:06.352Z,60.00
2018-09-13T05:45:06.366Z,64.00
2018-09-13T05:46:06.383Z,68.00
2018-09-13T05:47:06.399Z,72.00
2018-09-13T05:48:06.409Z,72.00
2018-09-13T05:49:06.442Z,80.00
2018-09-13T05:50:06.463Z,84.00
2018-09-13T05:51:06.516Z,92.00
2018-09-13T05:52:06.478Z,96.00
2018-09-13T05:53:06.484Z,104.00
2018-09-13T05:54:06.492Z,116.00
2018-09-13T05:55:06.507Z,124.00
2018-09-13T05:56:06.840Z,132.00
2018-09-13T05:58:06.690Z,148.00
2018-09-13T05:59:06.876Z,160.00
2018-09-13T06:00:06.582Z,168.00
2018-09-13T06:01:06.593Z,180.00
2018-09-13T06:02:06.611Z,196.00
2018-09-13T06:03:06.930Z,224.00
2018-09-13T06:04:06.640Z,256.00
2018-09-13T06:05:06.797Z,296.00
2018-09-13T06:06:06.669Z,328.00
2018-09-13T06:07:06.722Z,356.00
2018-09-13T06:08:06.794Z,376.00
2018-09-13T06:09:06.710Z,388.00
2018-09-13T06:10:06.720Z,400.00
2018-09-13T06:11:06.737Z,420.00
2018-09-13T06:12:06.751Z,436.00
2018-09-13T06:13:06.768Z,448.00
2018-09-13T06:14:06.775Z,456.00
2018-09-13T06:15:06.791Z,460.00
2018-09-13T06:16:06.873Z,472.00
2018-09-13T06:17:06.819Z,496.00
2018-09-13T06:18:06.832Z,516.00
2018-09-13T06:19:06.847Z,532.00
2018-09-13T06:20:06.864Z,548.00
2018-09-13T06:21:06.879Z,560.00
2018-09-13T06:22:06.891Z,576.00
2018-09-13T06:23:06.905Z,588.00
2018-09-13T06:24:06.917Z,600.00
2018-09-13T06:25:06.949Z,608.00
2018-09-13T06:26:06.972Z,628.00
2018-09-13T06:27:06.964Z,660.00
2018-09-13T06:28:06.976Z,688.00
2018-09-13T06:29:06.990Z,712.00
2018-09-13T06:30:07.045Z,728.00
2018-09-13T06:31:07.025Z,748.00
2018-09-13T06:32:07.806Z,760.00
2018-09-13T06:33:07.353Z,772.00
2018-09-13T06:34:07.654Z,780.00
2018-09-13T06:35:07.121Z,772.00
2018-09-13T06:36:08.287Z,804.00
2018-09-13T06:37:07.108Z,848.00
2018-09-13T06:38:07.118Z,864.00
2018-09-13T06:39:07.132Z,872.00
2018-09-13T06:40:07.151Z,884.00
2018-09-13T06:41:07.225Z,896.00
2018-09-13T06:42:07.185Z,900.00
2018-09-13T06:43:07.190Z,904.00
2018-09-13T06:44:07.211Z,916.00
2018-09-13T06:45:07.305Z,916.00
2018-09-13T06:46:07.234Z,948.00
2018-09-13T06:47:07.322Z,980.00
2018-09-13T06:48:07.265Z,1012.00
2018-09-13T06:49:07.283Z,1040.00
2018-09-13T06:50:07.401Z,1056.00
2018-09-13T06:51:07.305Z,1060.00
2018-09-13T06:52:07.320Z,1064.00
2018-09-13T06:53:07.334Z,1068.00
2018-09-13T06:54:07.433Z,1056.00
2018-09-13T06:55:07.362Z,1068.00
2018-09-13T06:56:07.409Z,1068.00
2018-09-13T06:57:07.585Z,1136.00
2018-09-13T06:58:07.423Z,1160.00
2018-09-13T06:59:07.521Z,1208.00
2018-09-13T07:00:07.619Z,1224.00
2018-09-13T07:01:07.520Z,1236.00
2018-09-13T07:02:07.491Z,1260.00
2018-09-13T07:04:07.572Z,1304.00
2018-09-13T07:05:07.513Z,1328.00
2018-09-13T07:06:07.519Z,1344.00
2018-09-13T07:07:07.538Z,1360.00
2018-09-13T07:08:07.550Z,1360.00
2018-09-13T07:10:07.928Z,1384.00
2018-09-13T07:11:08.484Z,1424.00
2018-09-13T07:12:07.642Z,1412.00
2018-09-13T07:13:07.622Z,1372.00
2018-09-13T07:14:07.639Z,1340.00
2018-09-13T07:15:07.660Z,1340.00
2018-09-13T07:16:07.670Z,1328.00
2018-09-13T07:17:08.012Z,1316.00
2018-09-13T07:18:07.697Z,1288.00
2018-09-13T07:19:08.459Z,1232.00
2018-09-13T07:20:07.725Z,1184.00
2018-09-13T07:21:07.810Z,1152.00
2018-09-13T07:22:08.496Z,1132.00
2018-09-13T07:23:08.437Z,1128.00
2018-09-13T07:24:08.154Z,1156.00
2018-09-13T07:25:07.805Z,1216.00
2018-09-13T07:26:07.817Z,1268.00
2018-09-13T07:27:07.847Z,1368.00
2018-09-13T07:28:07.833Z,1452.00
2018-09-13T07:29:07.857Z,1476.00
2018-09-13T07:30:07.861Z,1492.00
2018-09-13T07:31:07.909Z,1480.00
2018-09-13T07:32:07.902Z,1480.00
2018-09-13T07:33:07.947Z,1444.00
2018-09-13T07:34:07.922Z,1472.00
2018-09-13T07:35:07.934Z,1512.00
2018-09-13T07:36:07.959Z,1472.00
2018-09-13T07:37:07.993Z,1456.00
2018-09-13T07:38:07.979Z,1484.00
2018-09-13T07:39:07.990Z,1444.00
2018-09-13T07:40:08.018Z,1384.00
2018-09-13T07:41:08.100Z,1428.00
2018-09-13T07:42:08.039Z,1456.00
2018-09-13T07:43:08.073Z,1460.00
2018-09-13T07:44:08.070Z,1428.00
2018-09-13T07:45:08.083Z,1400.00
2018-09-13T07:46:08.120Z,1436.00
2018-09-13T07:47:08.996Z,1508.00
2018-09-13T07:48:08.129Z,1592.00
2018-09-13T07:49:08.153Z,1632.00
2018-09-13T07:50:08.154Z,1680.00
2018-09-13T07:51:08.170Z,1780.00
2018-09-13T07:52:08.325Z,1872.00
2018-09-13T07:53:08.203Z,1904.00
2018-09-13T07:54:08.211Z,1816.00
2018-09-13T07:55:08.225Z,1760.00
2018-09-13T07:56:08.826Z,1784.00
2018-09-13T07:57:08.558Z,1860.00
2018-09-13T07:58:08.267Z,1888.00
2018-09-13T07:59:08.309Z,1848.00
2018-09-13T08:00:08.301Z,1772.00
2018-09-13T08:01:08.324Z,1700.00
2018-09-13T08:02:08.339Z,1712.00
2018-09-13T08:03:08.348Z,1692.00
2018-09-13T08:04:08.438Z,1612.00
2018-09-13T08:05:08.417Z,1536.00
2018-09-13T08:06:08.386Z,1432.00
2018-09-13T08:07:08.425Z,1300.00
2018-09-13T08:08:08.454Z,1188.00
2018-09-13T08:09:08.456Z,1136.00
2018-09-13T08:10:08.445Z,1164.00
2018-09-13T08:11:08.456Z,1244.00
2018-09-13T08:12:08.613Z,1284.00
2018-09-13T08:13:08.515Z,1328.00
2018-09-13T08:14:08.816Z,1368.00
2018-09-13T08:16:08.746Z,1440.00
2018-09-13T08:17:08.559Z,1572.00
2018-09-13T08:18:08.563Z,1760.00
2018-09-13T08:19:08.573Z,1940.00
2018-09-13T08:20:08.599Z,2072.00
2018-09-13T08:21:08.636Z,2160.00
2018-09-13T08:22:08.740Z,2232.00
2018-09-13T08:23:08.632Z,2272.00
2018-09-13T08:24:08.652Z,2272.00
2018-09-13T08:25:08.682Z,2272.00
2018-09-13T08:26:08.820Z,2200.00
2018-09-13T08:27:08.712Z,2080.00
2018-09-13T08:28:09.024Z,2064.00
2018-09-13T08:29:08.718Z,2144.00
2018-09-13T08:30:08.736Z,2224.00
2018-09-13T08:31:08.772Z,2280.00
2018-09-13T08:32:08.774Z,2332.00
2018-09-13T08:33:08.814Z,2348.00
2018-09-13T08:34:08.790Z,2332.00
2018-09-13T08:35:08.886Z,2308.00
2018-09-13T08:36:08.824Z,2288.00
2018-09-13T08:37:09.180Z,2316.00
2018-09-13T08:38:08.857Z,2272.00
2018-09-13T08:39:08.872Z,2116.00
2018-09-13T08:40:08.929Z,2000.00
2018-09-13T08:41:08.892Z,1912.00
2018-09-13T08:42:08.906Z,1844.00
2018-09-13T08:43:08.970Z,1948.00
2018-09-13T08:44:08.945Z,2096.00
2018-09-13T08:45:08.953Z,2220.00
2018-09-13T08:46:09.017Z,2416.00
2018-09-13T08:47:09.077Z,2660.00
2018-09-13T08:48:09.017Z,2792.00
2018-09-13T08:49:09.032Z,2768.00
2018-09-13T08:50:09.025Z,2700.00
2018-09-13T08:51:09.059Z,2660.00
2018-09-13T08:52:09.130Z,2600.00
2018-09-13T08:53:09.073Z,2544.00
2018-09-13T08:54:09.092Z,2476.00
2018-09-13T08:55:09.128Z,2416.00
2018-09-13T08:56:09.111Z,2336.00
2018-09-13T08:57:09.126Z,2260.00
2018-09-13T08:58:09.142Z,2188.00
2018-09-13T08:59:09.171Z,2144.00
2018-09-13T09:00:09.169Z,2176.00
2018-09-13T09:01:09.188Z,2332.00
2018-09-13T09:03:09.224Z,2672.00
2018-09-13T09:04:09.327Z,2768.00
2018-09-13T09:05:09.394Z,2884.00
2018-09-13T09:07:09.273Z,3072.00
2018-09-13T09:08:09.331Z,3008.00
2018-09-13T09:09:09.305Z,2844.00
2018-09-13T09:10:09.320Z,2652.00
2018-09-13T09:11:09.343Z,2588.00
2018-09-13T09:12:09.353Z,2540.00
2018-09-13T09:13:09.370Z,2340.00
2018-09-13T09:14:09.376Z,2052.00
2018-09-13T09:15:09.555Z,1996.00
2018-09-13T09:16:09.464Z,2060.00
2018-09-13T09:17:09.437Z,2172.00
2018-09-13T09:18:09.497Z,2228.00
2018-09-13T09:20:09.668Z,2304.00
2018-09-13T09:21:09.491Z,2284.00
2018-09-13T09:22:09.652Z,2292.00
2018-09-13T09:23:09.969Z,2388.00
2018-09-13T09:24:09.532Z,2560.00
2018-09-13T09:25:10.392Z,3032.00
2018-09-13T09:26:09.556Z,3760.00
2018-09-13T09:27:09.997Z,4256.00
2018-09-13T09:28:09.700Z,4572.00
2018-09-13T09:29:09.793Z,4568.00
2018-09-13T09:30:09.747Z,4516.00
2018-09-13T09:31:09.643Z,4436.00
2018-09-13T09:32:10.529Z,4284.00
2018-09-13T09:33:09.667Z,4072.00
2018-09-13T09:34:09.803Z,3812.00
2018-09-13T09:35:09.910Z,3456.00
2018-09-13T09:36:09.776Z,3088.00
2018-09-13T09:37:09.772Z,2872.00
2018-09-13T09:38:10.063Z,2748.00
2018-09-13T09:39:09.767Z,2708.00
2018-09-13T09:41:09.816Z,2996.00
2018-09-13T09:43:09.810Z,3304.00
2018-09-13T09:44:09.897Z,3372.00
2018-09-13T09:45:09.853Z,3476.00
2018-09-13T09:46:09.852Z,3472.00
2018-09-13T09:47:09.865Z,3336.00
2018-09-13T09:49:09.898Z,3008.00
2018-09-13T09:50:09.963Z,2840.00
2018-09-13T09:51:09.925Z,2696.00
2018-09-13T09:52:09.971Z,2548.00
2018-09-13T09:54:09.982Z,2292.00
2018-09-13T09:55:09.993Z,2272.00
2018-09-13T09:56:10.071Z,2348.00
2018-09-13T09:57:10.023Z,2464.00
2018-09-13T09:58:10.034Z,2548.00
2018-09-13T09:59:10.059Z,2616.00
2018-09-13T10:00:10.380Z,2632.00
2018-09-13T10:01:10.081Z,2632.00
2018-09-13T10:02:10.093Z,2656.00
2018-09-13T10:03:10.135Z,2744.00
2018-09-13T10:04:10.171Z,2952.00
2018-09-13T10:05:10.135Z,3284.00
2018-09-13T10:06:11.240Z,3612.00
2018-09-13T10:07:10.166Z,3900.00
2018-09-13T10:08:10.179Z,4052.00
2018-09-13T10:09:10.249Z,4084.00
2018-09-13T10:10:10.207Z,3972.00
2018-09-13T10:11:10.222Z,3892.00
2018-09-13T10:12:10.240Z,3808.00
2018-09-13T10:13:10.279Z,3700.00
2018-09-13T10:14:10.273Z,3512.00
2018-09-13T10:15:10.375Z,3364.00
2018-09-13T10:16:10.365Z,3280.00
2018-09-13T10:17:10.313Z,3240.00
2018-09-13T10:18:10.332Z,3240.00
2018-09-13T10:19:10.352Z,3360.00
2018-09-13T10:20:10.459Z,3452.00
2018-09-13T10:21:10.375Z,3564.00
2018-09-13T10:22:10.387Z,3744.00
2018-09-13T10:23:10.406Z,3908.00
2018-09-13T10:24:10.427Z,4032.00
2018-09-13T10:25:10.433Z,4104.00
2018-09-13T10:26:10.464Z,4184.00
2018-09-13T10:27:10.973Z,4276.00
2018-09-13T10:28:10.760Z,4252.00
2018-09-13T10:29:10.569Z,4072.00
2018-09-13T10:30:10.508Z,3788.00
2018-09-13T10:31:10.540Z,3452.00
2018-09-13T10:32:10.538Z,3152.00
2018-09-13T10:33:10.553Z,2908.00
2018-09-13T10:34:10.570Z,2772.00
2018-09-13T10:35:10.589Z,2708.00
2018-09-13T10:36:10.603Z,2724.00
2018-09-13T10:37:11.006Z,2776.00
2018-09-13T10:38:10.766Z,2824.00
2018-09-13T10:39:10.652Z,2936.00
2018-09-13T10:40:10.675Z,3060.00
2018-09-13T10:41:10.675Z,3180.00
2018-09-13T10:42:10.708Z,3348.00
2018-09-13T10:44:10.746Z,3644.00
2018-09-13T10:45:10.756Z,3844.00
2018-09-13T10:46:10.758Z,4064.00
2018-09-13T10:47:10.770Z,4264.00
2018-09-13T10:48:10.847Z,4404.00
2018-09-13T10:49:10.794Z,4596.00
2018-09-13T10:50:10.813Z,4852.00
2018-09-13T10:51:10.825Z,4948.00
2018-09-13T10:52:10.846Z,5008.00
2018-09-13T10:53:10.914Z,4852.00
2018-09-13T10:54:10.924Z,4848.00
2018-09-13T10:55:10.890Z,4732.00
2018-09-13T10:58:10.933Z,5012.00
2018-09-13T10:59:11.084Z,5196.00
2018-09-13T11:00:11.008Z,4668.00
2018-09-13T11:01:12.242Z,4132.00
2018-09-13T11:02:11.866Z,4324.00
2018-09-13T11:03:11.012Z,5500.00
2018-09-13T11:04:11.164Z,5732.00
2018-09-13T11:05:11.047Z,5864.00
2018-09-13T11:06:11.052Z,5368.00
2018-09-13T11:07:11.068Z,4532.00
2018-09-13T11:08:11.085Z,3876.00
2018-09-13T11:09:11.103Z,3512.00
2018-09-13T11:10:11.115Z,3276.00
2018-09-13T11:11:11.212Z,3080.00
2018-09-13T11:12:11.146Z,2916.00
2018-09-13T11:13:11.162Z,2796.00
2018-09-13T11:14:11.207Z,2716.00
2018-09-13T11:15:11.195Z,2712.00
2018-09-13T11:17:11.226Z,2696.00
2018-09-13T11:18:11.241Z,2712.00
2018-09-13T11:19:11.253Z,2792.00
2018-09-13T11:20:11.268Z,2948.00
2018-09-13T11:21:11.286Z,3100.00
2018-09-13T11:22:11.299Z,3260.00
2018-09-13T11:23:11.314Z,3424.00
2018-09-13T11:24:11.385Z,3624.00
2018-09-13T11:25:11.368Z,3776.00
2018-09-13T11:26:11.378Z,3860.00
2018-09-13T11:27:11.536Z,3956.00
2018-09-13T11:28:11.408Z,4052.00
2018-09-13T11:29:11.406Z,4168.00
2018-09-13T11:30:11.432Z,4288.00
2018-09-13T11:31:11.665Z,4340.00
2018-09-13T11:32:11.472Z,4336.00
2018-09-13T11:33:11.609Z,4272.00
2018-09-13T11:34:11.581Z,4172.00
2018-09-13T11:35:11.496Z,4064.00
2018-09-13T11:36:11.529Z,3848.00
2018-09-13T11:37:11.563Z,3636.00
2018-09-13T11:38:11.543Z,3436.00
2018-09-13T11:39:11.561Z,3228.00
2018-09-13T11:40:11.675Z,2964.00
2018-09-13T11:41:11.610Z,2720.00
2018-09-13T11:42:11.809Z,2968.00
2018-09-13T11:43:11.630Z,2316.00
2018-09-13T11:44:11.736Z,2072.00
2018-09-13T11:45:11.661Z,1988.00
2018-09-13T11:46:11.673Z,1960.00
2018-09-13T11:47:11.757Z,1944.00
2018-09-13T11:48:12.054Z,1916.00
2018-09-13T11:49:11.732Z,1888.00
2018-09-13T11:50:11.745Z,1856.00
2018-09-13T11:51:11.755Z,1832.00
2018-09-13T11:52:11.767Z,1840.00
2018-09-13T11:53:11.793Z,1872.00
2018-09-13T11:54:12.006Z,1936.00
2018-09-13T11:55:11.809Z,2044.00
2018-09-13T11:56:11.827Z,2200.00
2018-09-13T11:57:11.829Z,2348.00
2018-09-13T11:58:11.898Z,2508.00
2018-09-13T11:59:11.860Z,2684.00
2018-09-13T12:00:11.894Z,2888.00
2018-09-13T12:01:11.904Z,3196.00
2018-09-13T12:02:11.908Z,3580.00
2018-09-13T12:03:11.978Z,4052.00
2018-09-13T12:04:11.933Z,4520.00
2018-09-13T12:06:12.504Z,5496.00
2018-09-13T12:07:12.015Z,5792.00
2018-09-13T12:08:11.998Z,6000.00
2018-09-13T12:09:12.022Z,6140.00
2018-09-13T12:10:12.029Z,6252.00
2018-09-13T12:11:12.043Z,6372.00
2018-09-13T12:12:12.058Z,6428.00
2018-09-13T12:13:12.083Z,6424.00
2018-09-13T12:14:12.201Z,6424.00
2018-09-13T12:15:12.106Z,6360.00
2018-09-13T12:16:12.124Z,6300.00
2018-09-13T12:17:12.137Z,6224.00
2018-09-13T12:18:12.206Z,6040.00
2018-09-13T12:19:12.177Z,5696.00
2018-09-13T12:20:12.188Z,5128.00
2018-09-13T12:21:12.249Z,4452.00
2018-09-13T12:23:12.266Z,3556.00
2018-09-13T12:24:12.269Z,3388.00
2018-09-13T12:25:12.262Z,3308.00
2018-09-13T12:26:12.278Z,3420.00
2018-09-13T12:27:12.293Z,3560.00
2018-09-13T12:28:12.305Z,3772.00
2018-09-13T12:29:12.320Z,3940.00
2018-09-13T12:30:12.340Z,4048.00
2018-09-13T12:31:12.349Z,4048.00
2018-09-13T12:32:12.368Z,4124.00
2018-09-13T12:33:12.381Z,4508.00
2018-09-13T12:34:12.412Z,4832.00
2018-09-13T12:35:12.429Z,5100.00
2018-09-13T12:36:12.429Z,5316.00
2018-09-13T12:37:12.442Z,5500.00
2018-09-13T12:38:12.464Z,5620.00
2018-09-13T12:39:12.475Z,6104.00
2018-09-13T12:40:12.659Z,6380.00
2018-09-13T12:41:13.320Z,6616.00
2018-09-13T12:42:13.579Z,6712.00
2018-09-13T12:43:12.546Z,6272.00
2018-09-13T12:44:12.552Z,6188.00
2018-09-13T12:45:12.571Z,6260.00
2018-09-13T12:46:12.581Z,6780.00
2018-09-13T12:47:12.621Z,6460.00
2018-09-13T12:48:12.611Z,6160.00
2018-09-13T12:49:12.629Z,6080.00
2018-09-13T12:50:12.645Z,6472.00
2018-09-13T12:51:12.658Z,7268.00
2018-09-13T12:52:12.735Z,7224.00
2018-09-13T12:53:12.701Z,6896.00
2018-09-13T12:54:12.709Z,6608.00
2018-09-13T12:55:12.721Z,5300.00